createdAt,value
2019-02-08T00:00:59.323Z,7.47
2019-02-08T00:03:32.516Z,6.93
2019-02-08T00:06:12.896Z,8.20
2019-02-08T00:08:43.722Z,7.60
2019-02-08T00:11:17.912Z,6.27
2019-02-08T00:13:51.599Z,7.10
2019-02-08T00:16:25.032Z,7.27
2019-02-08T00:18:57.398Z,7.37
2019-02-08T00:21:29.475Z,6.10
2019-02-08T00:24:01.681Z,6.60
2019-02-08T00:26:38.246Z,6.17
2019-02-08T00:29:16.578Z,7.13
2019-02-08T00:31:59.116Z,6.30
2019-02-08T00:34:31.546Z,6.43
2019-02-08T00:37:03.872Z,6.67
2019-02-08T00:39:36.206Z,6.27
2019-02-08T00:42:09.325Z,7.00
2019-02-08T00:44:42.018Z,6.67
2019-02-08T00:47:14.130Z,6.80
2019-02-08T00:49:45.883Z,5.80
2019-02-08T00:52:18.128Z,6.70
2019-02-08T00:55:01.872Z,7.33
2019-02-08T00:57:36.273Z,11.27
2019-02-08T01:00:14.010Z,10.27
2019-02-08T01:02:55.022Z,9.50
2019-02-08T01:05:38.746Z,8.40
2019-02-08T01:08:12.277Z,6.43
2019-02-08T01:10:54.916Z,6.77
2019-02-08T01:13:39.212Z,7.73
2019-02-08T01:16:24.816Z,7.67
2019-02-08T01:18:58.304Z,8.90
2019-02-08T01:21:38.189Z,7.87
2019-02-08T01:24:16.664Z,9.10
2019-02-08T01:27:02.487Z,8.43
2019-02-08T01:32:34.018Z,9.93
2019-02-08T01:35:08.439Z,8.90
2019-02-08T01:37:40.953Z,8.57
2019-02-08T01:40:16.393Z,8.13
2019-02-08T01:42:49.557Z,8.13
2019-02-08T01:45:23.588Z,7.43
2019-02-08T01:48:06.371Z,8.37
2019-02-08T01:50:39.403Z,7.60
2019-02-08T01:53:11.954Z,8.50
2019-02-08T02:02:23.721Z,8.40
2019-02-08T02:04:58.009Z,9.47
2019-02-08T02:07:31.456Z,9.20
2019-02-08T02:10:04.119Z,8.67
2019-02-08T02:12:36.828Z,9.57
2019-02-08T02:15:10.240Z,8.13
2019-02-08T02:17:44.435Z,8.60
2019-02-08T02:20:23.493Z,8.83
2019-02-08T02:22:56.088Z,8.53
2019-02-08T02:25:28.832Z,9.83
2019-02-08T02:28:01.858Z,9.23
2019-02-08T02:30:37.236Z,9.97
2019-02-08T02:33:16.946Z,10.40
2019-02-08T02:35:50.425Z,9.53
2019-02-08T02:38:27.438Z,10.87
2019-02-08T02:41:00.151Z,9.43
2019-02-08T02:43:33.601Z,9.70
2019-02-08T02:46:11.300Z,9.67
2019-02-08T02:49:02.231Z,10.47
2019-02-08T02:51:35.208Z,12.80
2019-02-08T02:54:09.135Z,11.43
2019-02-08T02:56:41.788Z,11.57
2019-02-08T02:59:14.655Z,11.87
2019-02-08T03:01:47.214Z,11.17
2019-02-08T03:04:19.694Z,10.60
2019-02-08T03:06:52.740Z,11.40
2019-02-08T03:09:30.113Z,10.77
2019-02-08T03:12:03.336Z,10.53
2019-02-08T03:14:36.234Z,12.47
2019-02-08T03:17:09.108Z,11.60
2019-02-08T03:19:42.666Z,10.40
2019-02-08T03:22:15.194Z,10.53
2019-02-08T03:24:49.158Z,10.83
2019-02-08T03:27:22.200Z,11.00
2019-02-08T03:29:54.835Z,10.73
2019-02-08T03:32:29.447Z,10.63
2019-02-08T03:35:06.277Z,11.47
2019-02-08T03:37:39.963Z,10.70
2019-02-08T03:40:15.343Z,11.67
2019-02-08T03:42:48.649Z,10.77
2019-02-08T03:45:23.576Z,11.90
2019-02-08T03:47:56.592Z,11.03
2019-02-08T03:50:29.118Z,11.93
2019-02-08T03:53:01.689Z,10.80
2019-02-08T03:55:34.511Z,11.57
2019-02-08T03:58:08.097Z,9.50
2019-02-08T04:00:45.495Z,10.97
2019-02-08T04:03:18.278Z,11.63
2019-02-08T04:05:50.619Z,11.00
2019-02-08T04:08:22.879Z,10.80
2019-02-08T04:10:55.621Z,10.27
2019-02-08T04:13:27.753Z,10.73
2019-02-08T04:16:00.006Z,10.20
2019-02-08T04:18:32.220Z,11.17
2019-02-08T04:21:04.420Z,10.97
2019-02-08T04:23:37.257Z,11.37
2019-02-08T04:26:10.191Z,11.00
2019-02-08T04:28:45.925Z,12.03
2019-02-08T04:31:18.005Z,11.63
2019-02-08T04:33:50.636Z,10.33
2019-02-08T04:36:22.644Z,9.77
2019-02-08T04:38:55.203Z,9.67
2019-02-08T04:41:27.137Z,10.17
2019-02-08T04:43:59.615Z,10.50
2019-02-08T04:46:31.512Z,12.03
2019-02-08T04:49:03.992Z,13.60
2019-02-08T04:51:36.167Z,11.07
2019-02-08T04:54:08.687Z,9.43
2019-02-08T04:56:41.417Z,9.53
2019-02-08T04:59:13.661Z,9.53
2019-02-08T05:01:46.496Z,9.07
2019-02-08T05:04:19.965Z,8.60
2019-02-08T05:06:52.696Z,9.20
2019-02-08T05:09:25.494Z,9.20
2019-02-08T05:11:57.454Z,10.17
2019-02-08T05:14:30.530Z,9.17
2019-02-08T05:17:04.368Z,9.20
2019-02-08T05:19:36.353Z,10.30
2019-02-08T05:22:08.522Z,10.33
2019-02-08T05:24:45.770Z,11.70
2019-02-08T05:27:14.071Z,12.50
2019-02-08T05:29:46.926Z,10.07
2019-02-08T05:32:19.465Z,10.83
2019-02-08T05:34:51.719Z,9.87
2019-02-08T05:37:24.279Z,10.60
2019-02-08T05:39:56.334Z,9.90
2019-02-08T05:42:28.348Z,10.47
2019-02-08T05:45:00.417Z,10.63
2019-02-08T05:47:32.634Z,10.83
2019-02-08T05:50:05.343Z,11.03
2019-02-08T05:52:37.533Z,10.53
2019-02-08T05:55:12.223Z,12.47
2019-02-08T05:57:44.453Z,11.73
2019-02-08T06:00:35.533Z,11.80
2019-02-08T06:03:08.050Z,11.20
2019-02-08T06:05:41.001Z,11.40
2019-02-08T06:08:13.179Z,12.57
2019-02-08T06:10:45.298Z,17.03
2019-02-08T06:13:17.569Z,16.47
2019-02-08T06:15:49.652Z,16.60
2019-02-08T06:21:49.761Z,15.80
2019-02-08T06:24:21.492Z,14.57
2019-02-08T06:26:53.366Z,14.50
2019-02-08T06:29:24.928Z,13.97
2019-02-08T06:31:56.931Z,13.83
2019-02-08T06:34:29.265Z,13.80
2019-02-08T06:37:01.115Z,15.53
2019-02-08T06:39:33.329Z,15.37
2019-02-08T06:42:05.415Z,15.63
2019-02-08T06:44:37.716Z,15.53
2019-02-08T06:47:09.942Z,15.10
2019-02-08T06:49:41.606Z,15.00
2019-02-08T06:52:13.299Z,15.07
2019-02-08T06:54:44.943Z,14.27
2019-02-08T06:57:21.197Z,14.87
2019-02-08T06:59:54.412Z,14.53
2019-02-08T07:02:34.254Z,14.30
2019-02-08T07:05:19.154Z,14.53
2019-02-08T07:07:55.285Z,13.47
2019-02-08T07:10:31.364Z,13.03
2019-02-08T07:13:10.862Z,13.10
2019-02-08T07:15:50.153Z,14.60
2019-02-08T07:18:39.728Z,13.33
2019-02-08T07:21:15.757Z,14.20
2019-02-08T07:23:58.340Z,13.30
2019-02-08T07:26:40.104Z,11.87
2019-02-08T07:29:16.538Z,12.37
2019-02-08T07:31:52.519Z,12.70
2019-02-08T07:34:28.614Z,11.67
2019-02-08T07:37:08.002Z,12.97
2019-02-08T07:39:59.343Z,13.17
2019-02-08T07:42:32.720Z,13.77
2019-02-08T07:45:10.924Z,13.50
2019-02-08T07:48:00.605Z,12.50
2019-02-08T07:50:48.867Z,12.00
2019-02-08T07:53:27.885Z,12.07
2019-02-08T07:56:09.571Z,12.93
2019-02-08T07:58:42.564Z,11.87
2019-02-08T08:01:21.850Z,11.73
2019-02-08T08:04:01.486Z,12.97
2019-02-08T08:06:45.050Z,13.17
2019-02-08T08:09:27.384Z,14.30
2019-02-08T08:12:03.648Z,13.40
2019-02-08T08:14:46.669Z,14.40
2019-02-08T08:17:22.941Z,15.23
2019-02-08T08:19:56.413Z,15.07
2019-02-08T08:22:38.790Z,14.90
2019-02-08T08:25:19.291Z,19.00
2019-02-08T08:27:58.410Z,17.27
2019-02-08T08:30:32.406Z,17.03
2019-02-08T08:33:11.893Z,16.40
2019-02-08T08:36:03.579Z,16.77
2019-02-08T08:38:46.608Z,16.53
2019-02-08T08:41:40.038Z,16.67
2019-02-08T08:44:36.882Z,17.93
2019-02-08T08:47:20.668Z,18.77
2019-02-08T08:50:17.606Z,16.33
2019-02-08T08:53:16.625Z,18.93
2019-02-08T08:55:59.428Z,16.70
2019-02-08T08:58:45.626Z,17.00
2019-02-08T09:01:38.238Z,16.17
2019-02-08T09:04:18.173Z,13.90
2019-02-08T09:06:55.672Z,13.40
2019-02-08T09:09:39.315Z,13.00
2019-02-08T09:12:28.443Z,12.20
2019-02-08T09:15:19.731Z,13.70
2019-02-08T09:17:57.461Z,13.97
2019-02-08T09:24:16.929Z,15.67
2019-02-08T09:27:10.630Z,15.27
2019-02-08T09:30:13.393Z,14.40
2019-02-08T09:32:56.715Z,12.97
2019-02-08T09:35:47.417Z,13.67
2019-02-08T09:38:34.146Z,13.23
2019-02-08T09:41:20.680Z,12.53
2019-02-08T09:44:09.529Z,13.00
2019-02-08T09:47:01.955Z,12.97
2019-02-08T09:49:45.153Z,13.10
2019-02-08T09:52:26.413Z,12.40
2019-02-08T09:55:32.354Z,11.87
2019-02-08T09:58:39.268Z,13.00
2019-02-08T10:01:28.082Z,12.73
2019-02-08T10:04:20.235Z,12.70
2019-02-08T10:07:19.627Z,12.83
2019-02-08T10:10:11.950Z,13.40
2019-02-08T10:12:57.823Z,14.20
2019-02-08T10:15:54.020Z,13.33
2019-02-08T10:18:44.844Z,14.67
2019-02-08T10:21:22.153Z,14.80
2019-02-08T10:24:31.177Z,15.30
2019-02-08T10:27:22.406Z,16.10
2019-02-08T10:30:15.103Z,14.90
2019-02-08T10:33:01.938Z,14.97
2019-02-08T10:35:42.636Z,16.63
2019-02-08T10:38:46.465Z,17.70
2019-02-08T10:41:46.590Z,15.60
2019-02-08T10:44:20.808Z,17.87
2019-02-08T10:47:10.393Z,17.77
2019-02-08T10:50:17.846Z,18.73
2019-02-08T10:53:04.852Z,17.07
2019-02-08T10:55:54.187Z,16.97
2019-02-08T10:59:01.470Z,21.13
2019-02-08T11:01:41.844Z,16.73
2019-02-08T11:04:17.792Z,17.33
2019-02-08T11:07:18.179Z,18.00
2019-02-08T11:10:12.231Z,17.13
2019-02-08T11:12:55.378Z,16.47
2019-02-08T11:15:47.113Z,15.80
2019-02-08T11:18:50.245Z,17.17
2019-02-08T11:21:22.243Z,17.27
2019-02-08T11:23:55.030Z,17.57
2019-02-08T11:26:26.596Z,16.97
2019-02-08T11:28:58.090Z,18.57
2019-02-08T11:31:30.375Z,17.10
2019-02-08T11:34:01.997Z,20.10
2019-02-08T11:36:33.838Z,18.83
2019-02-08T11:39:08.000Z,22.70
2019-02-08T11:41:39.958Z,25.30
2019-02-08T11:45:02.923Z,28.17
2019-02-08T11:47:35.233Z,28.63
2019-02-08T11:50:09.267Z,25.93
2019-02-08T11:52:41.029Z,26.10
2019-02-08T11:55:12.654Z,27.80
2019-02-08T11:57:44.356Z,24.80
2019-02-08T12:00:22.929Z,24.27
2019-02-08T12:02:56.589Z,24.20
2019-02-08T12:05:28.096Z,25.27
2019-02-08T12:07:59.898Z,23.43
2019-02-08T12:10:31.622Z,25.00
2019-02-08T12:13:07.821Z,24.60
2019-02-08T12:15:44.475Z,20.00
2019-02-08T12:18:16.875Z,21.00
2019-02-08T12:20:48.788Z,23.77
2019-02-08T12:23:20.544Z,23.83
2019-02-08T12:25:52.125Z,25.17
2019-02-08T12:28:23.759Z,23.97
2019-02-08T12:30:55.389Z,22.37
2019-02-08T12:33:27.022Z,23.00
2019-02-08T12:35:58.590Z,25.53
2019-02-08T12:38:30.667Z,23.37
2019-02-08T12:41:09.434Z,25.10
2019-02-08T12:43:38.636Z,27.83
2019-02-08T12:46:10.254Z,28.47
2019-02-08T12:48:44.302Z,25.30
2019-02-08T12:51:16.691Z,24.23
2019-02-08T12:53:48.448Z,24.97
2019-02-08T12:56:20.905Z,25.27
2019-02-08T12:58:53.084Z,23.10
2019-02-08T13:01:24.721Z,24.07
2019-02-08T13:03:56.435Z,21.67
2019-02-08T13:06:28.587Z,23.23
2019-02-08T13:09:00.228Z,19.90
2019-02-08T13:11:32.338Z,22.47
2019-02-08T13:14:04.399Z,20.97
2019-02-08T13:16:36.496Z,18.23
2019-02-08T13:19:08.177Z,17.53
2019-02-08T13:21:40.426Z,17.73
2019-02-08T13:24:12.448Z,16.13
2019-02-08T13:26:44.941Z,14.50
2019-02-08T13:29:17.324Z,14.40
2019-02-08T13:31:49.092Z,15.73
2019-02-08T13:34:20.810Z,14.83
2019-02-08T13:36:52.435Z,12.63
2019-02-08T13:39:26.381Z,14.00
2019-02-08T13:41:58.129Z,14.33
2019-02-08T13:44:29.685Z,12.77
2019-02-08T13:47:03.618Z,11.23
2019-02-08T13:49:40.582Z,12.63
2019-02-08T13:52:12.228Z,11.57
2019-02-08T13:54:43.727Z,12.57
2019-02-08T14:00:18.754Z,11.97
2019-02-08T14:02:51.282Z,11.53
2019-02-08T14:05:28.054Z,11.57
2019-02-08T14:08:00.061Z,10.60
2019-02-08T14:10:32.189Z,9.90
2019-02-08T14:13:03.960Z,11.50
2019-02-08T14:15:36.414Z,11.37
2019-02-08T14:18:09.320Z,9.57
2019-02-08T14:20:41.006Z,10.43
2019-02-08T14:23:13.233Z,10.63
2019-02-08T14:25:44.931Z,8.97
2019-02-08T14:28:16.716Z,8.30
2019-02-08T14:30:48.997Z,9.83
2019-02-08T14:33:21.003Z,11.30
2019-02-08T14:35:59.692Z,10.80
2019-02-08T14:38:35.597Z,9.20
2019-02-08T14:41:08.335Z,10.80
2019-02-08T14:43:41.770Z,9.20
2019-02-08T14:46:14.487Z,9.63
2019-02-08T15:00:39.850Z,9.10
2019-02-08T15:03:19.981Z,7.77
2019-02-08T15:05:52.436Z,8.40
2019-02-08T15:08:24.422Z,7.63
2019-02-08T15:10:56.885Z,9.40
2019-02-08T15:13:29.179Z,8.97
2019-02-08T15:16:04.735Z,8.87
2019-02-08T15:18:38.628Z,8.27
2019-02-08T15:21:11.826Z,9.30
2019-02-08T15:23:50.939Z,8.30
2019-02-08T15:26:22.494Z,7.83
2019-02-08T15:28:54.743Z,7.13
2019-02-08T15:31:27.095Z,6.97
2019-02-08T15:33:59.615Z,7.53
2019-02-08T15:36:32.647Z,9.73
2019-02-08T15:39:08.508Z,6.87
2019-02-08T15:41:45.899Z,6.90
2019-02-08T15:44:18.856Z,7.20
2019-02-08T15:46:51.360Z,7.13
2019-02-08T15:53:14.007Z,7.97
2019-02-08T15:56:01.508Z,10.60
2019-02-08T15:58:46.108Z,14.77
2019-02-08T16:01:21.711Z,10.60
2019-02-08T16:03:58.856Z,10.37
2019-02-08T16:06:34.221Z,9.10
2019-02-08T16:09:11.011Z,11.30
2019-02-08T16:11:43.647Z,8.33
2019-02-08T16:14:21.134Z,12.63
2019-02-08T16:16:56.469Z,11.40
2019-02-08T16:19:33.349Z,9.80
2019-02-08T16:22:14.203Z,8.77
2019-02-08T16:24:56.145Z,13.47
2019-02-08T16:27:57.023Z,6.90
2019-02-08T16:30:42.844Z,12.13
2019-02-08T16:33:15.169Z,8.97
2019-02-08T16:35:49.281Z,11.77
2019-02-08T16:38:23.832Z,9.40
2019-02-08T16:41:01.577Z,10.80
2019-02-08T16:43:36.991Z,8.83
2019-02-08T16:46:13.704Z,8.97
2019-02-08T16:49:04.225Z,8.87
2019-02-08T16:51:39.218Z,8.30
2019-02-08T16:54:11.381Z,8.67
2019-02-08T16:56:43.562Z,9.77
2019-02-08T16:59:22.978Z,9.27
2019-02-08T17:02:14.520Z,9.30
2019-02-08T17:04:49.518Z,10.07
2019-02-08T17:07:21.645Z,9.83
2019-02-08T17:09:56.440Z,10.63
2019-02-08T17:12:28.700Z,10.63
2019-02-08T17:15:00.476Z,8.03
2019-02-08T17:17:35.447Z,10.00
2019-02-08T17:20:10.212Z,14.73
2019-02-08T17:22:43.458Z,8.43
2019-02-08T17:25:16.235Z,10.27
2019-02-08T17:27:55.243Z,10.90
2019-02-08T17:30:23.403Z,8.00
2019-02-08T17:32:56.322Z,8.00
2019-02-08T17:35:33.262Z,7.70
2019-02-08T17:38:05.541Z,8.97
2019-02-08T17:40:51.344Z,9.03
2019-02-08T17:43:27.011Z,11.00
2019-02-08T17:46:00.311Z,7.97
2019-02-08T17:48:35.231Z,8.40
2019-02-08T17:51:08.561Z,7.57
2019-02-08T17:53:40.955Z,8.83
2019-02-08T17:56:13.189Z,10.63
2019-02-08T17:58:45.268Z,10.80
2019-02-08T18:02:07.383Z,9.70
2019-02-08T18:04:41.523Z,9.73
2019-02-08T18:07:13.893Z,10.00
2019-02-08T18:09:48.176Z,11.73
2019-02-08T18:12:22.331Z,10.00
2019-02-08T18:15:00.419Z,7.83
2019-02-08T18:17:34.641Z,8.03
2019-02-08T18:20:10.322Z,8.73
2019-02-08T18:22:42.622Z,8.37
2019-02-08T18:25:15.383Z,9.97
2019-02-08T18:27:48.146Z,9.30
2019-02-08T18:30:29.033Z,9.07
2019-02-08T18:33:04.381Z,10.17
2019-02-08T18:35:37.115Z,9.63
2019-02-08T18:38:12.000Z,7.97
2019-02-08T18:40:46.548Z,8.40
2019-02-08T18:43:24.674Z,11.77
2019-02-08T18:46:00.374Z,8.73
2019-02-08T18:48:33.184Z,7.73
2019-02-08T18:51:06.391Z,10.57
2019-02-08T18:53:40.486Z,9.30
2019-02-08T18:56:14.954Z,11.87
2019-02-08T18:58:47.433Z,8.60
2019-02-08T19:01:22.872Z,9.37
2019-02-08T19:03:56.127Z,8.73
2019-02-08T19:06:29.039Z,7.80
2019-02-08T19:09:03.265Z,9.37
2019-02-08T19:11:39.900Z,14.80
2019-02-08T19:14:18.765Z,15.73
2019-02-08T19:17:15.813Z,13.33
2019-02-08T19:19:53.768Z,10.30
2019-02-08T19:22:32.375Z,12.27
2019-02-08T19:25:29.686Z,8.37
2019-02-08T19:28:36.633Z,11.53
2019-02-08T19:31:09.578Z,10.80
2019-02-08T19:33:44.039Z,11.63
2019-02-08T19:36:17.237Z,9.10
2019-02-08T19:38:51.433Z,14.33
2019-02-08T19:41:24.745Z,10.10
2019-02-08T19:43:57.511Z,8.53
2019-02-08T19:46:30.341Z,8.27
2019-02-08T19:49:03.429Z,9.58
2019-02-08T19:51:37.081Z,7.33
2019-02-08T19:54:10.820Z,6.90
2019-02-08T19:56:44.009Z,7.97
2019-02-08T19:59:22.264Z,8.67
2019-02-08T20:01:58.010Z,8.98
2019-02-08T20:04:35.246Z,6.90
2019-02-08T20:07:13.955Z,8.73
2019-02-08T20:09:48.391Z,9.40
2019-02-08T20:12:20.930Z,6.67
2019-02-08T20:14:53.448Z,8.65
2019-02-08T20:17:26.337Z,7.10
2019-02-08T20:20:00.334Z,8.60
2019-02-08T20:22:35.238Z,9.60
2019-02-08T20:25:13.097Z,8.03
2019-02-08T20:27:46.506Z,7.40
2019-02-08T20:30:26.229Z,5.63
2019-02-08T20:32:59.791Z,5.73
2019-02-08T20:35:32.751Z,8.33
2019-02-08T20:38:05.267Z,5.77
2019-02-08T20:40:46.369Z,7.17
2019-02-08T20:43:23.029Z,7.80
2019-02-08T20:49:07.758Z,5.83
2019-02-08T20:52:10.698Z,7.43
2019-02-08T20:54:47.035Z,8.20
2019-02-08T20:57:41.200Z,6.33
2019-02-08T21:00:37.944Z,5.70
2019-02-08T21:03:25.106Z,5.08
2019-02-08T21:06:03.222Z,6.90
2019-02-08T21:08:38.094Z,5.47
2019-02-08T21:11:14.163Z,8.60
2019-02-08T21:13:46.723Z,5.67
2019-02-08T21:16:19.266Z,8.58
2019-02-08T21:18:51.893Z,6.58
2019-02-08T21:21:24.079Z,8.33
2019-02-08T21:23:57.885Z,5.53
2019-02-08T21:26:30.865Z,7.77
2019-02-08T21:29:10.301Z,6.53
2019-02-08T21:31:45.260Z,9.43
2019-02-08T21:34:18.312Z,6.67
2019-02-08T21:36:50.628Z,5.87
2019-02-08T21:39:24.039Z,6.80
2019-02-08T21:41:57.957Z,6.17
2019-02-08T21:44:35.799Z,5.80
2019-02-08T21:47:10.852Z,6.37
2019-02-08T21:49:47.530Z,6.73
2019-02-08T21:52:42.444Z,5.73
2019-02-08T21:55:22.724Z,5.03
2019-02-08T21:57:55.518Z,7.80
2019-02-08T22:00:32.473Z,7.67
2019-02-08T22:03:08.082Z,8.00
2019-02-08T22:05:43.580Z,8.03
2019-02-08T22:08:17.712Z,7.97
2019-02-08T22:10:58.783Z,7.15
2019-02-08T22:13:32.686Z,8.45
2019-02-08T22:16:06.749Z,6.70
2019-02-08T22:18:43.525Z,7.47
2019-02-08T22:21:17.066Z,7.37
2019-02-08T22:23:52.200Z,5.63
2019-02-08T22:26:24.546Z,5.53
2019-02-08T22:29:14.004Z,5.87
2019-02-08T22:31:48.127Z,6.63
2019-02-08T22:34:20.347Z,8.37
2019-02-08T22:36:52.489Z,6.40
2019-02-08T22:39:28.002Z,6.23
2019-02-08T22:42:05.815Z,6.50
2019-02-08T22:44:41.914Z,7.37
2019-02-08T22:47:20.218Z,6.87
2019-02-08T22:50:05.305Z,6.83
2019-02-08T22:52:58.243Z,6.73
2019-02-08T22:55:39.832Z,6.57
2019-02-08T22:58:31.006Z,6.80
2019-02-08T23:01:08.208Z,5.60
2019-02-08T23:03:41.918Z,5.67
2019-02-08T23:06:15.862Z,5.57
2019-02-08T23:08:58.180Z,6.40
2019-02-08T23:11:30.951Z,7.13
2019-02-08T23:14:06.972Z,5.97
2019-02-08T23:16:42.710Z,6.47
2019-02-08T23:19:17.567Z,5.73
2019-02-08T23:21:58.523Z,5.53
2019-02-08T23:24:33.125Z,6.60
2019-02-08T23:27:05.654Z,7.40
2019-02-08T23:29:47.113Z,5.80
2019-02-08T23:32:35.291Z,6.57
2019-02-08T23:35:09.253Z,5.33
2019-02-08T23:37:42.149Z,4.60
2019-02-08T23:40:16.167Z,6.07
2019-02-08T23:42:52.076Z,7.07
2019-02-08T23:45:27.730Z,5.23
2019-02-08T23:48:04.839Z,5.83
2019-02-08T23:50:42.747Z,5.50
2019-02-08T23:53:26.661Z,5.60
2019-02-08T23:56:04.806Z,6.90
2019-02-08T23:58:38.747Z,4.70
